createdAt,value
2023-03-29T00:00:49.805Z,7.49
2023-03-29T00:03:17.228Z,7.54
2023-03-29T00:05:44.768Z,7.54
2023-03-29T00:08:14.620Z,7.56
2023-03-29T00:10:42.358Z,7.58
2023-03-29T00:13:08.923Z,7.58
2023-03-29T00:15:35.522Z,7.59
2023-03-29T00:18:02.018Z,7.60
2023-03-29T00:20:28.898Z,7.60
2023-03-29T00:22:55.757Z,7.60
2023-03-29T00:25:22.237Z,7.59
2023-03-29T00:27:48.794Z,7.57
2023-03-29T00:30:15.926Z,7.56
2023-03-29T00:32:42.825Z,7.51
2023-03-29T00:35:09.940Z,7.52
2023-03-29T00:37:37.956Z,7.52
2023-03-29T00:40:10.380Z,7.52
2023-03-29T00:42:37.148Z,7.49
2023-03-29T00:45:09.451Z,7.49
2023-03-29T00:47:53.231Z,7.48
2023-03-29T00:50:36.385Z,7.45
2023-03-29T00:53:03.513Z,7.46
2023-03-29T00:55:34.652Z,7.48
2023-03-29T00:58:04.446Z,7.51
2023-03-29T01:00:36.830Z,7.51
2023-03-29T01:03:13.471Z,7.49
2023-03-29T01:05:48.767Z,7.46
2023-03-29T01:08:25.665Z,7.43
2023-03-29T01:11:00.245Z,7.39
2023-03-29T01:13:41.795Z,7.38
2023-03-29T01:16:11.583Z,7.39
2023-03-29T01:18:38.362Z,7.37
2023-03-29T01:21:29.312Z,7.36
2023-03-29T01:24:30.340Z,7.34
2023-03-29T01:27:18.078Z,7.31
2023-03-29T01:29:54.152Z,7.30
2023-03-29T01:32:30.968Z,7.32
2023-03-29T01:35:03.938Z,7.31
2023-03-29T01:37:42.493Z,7.32
2023-03-29T01:40:09.480Z,7.32
2023-03-29T01:43:03.102Z,7.34
2023-03-29T01:45:49.678Z,7.30
2023-03-29T01:48:36.359Z,7.26
2023-03-29T01:51:09.535Z,7.23
2023-03-29T01:54:03.930Z,7.24
2023-03-29T01:56:36.815Z,7.20
2023-03-29T01:59:11.166Z,7.18
2023-03-29T02:01:42.318Z,7.19
2023-03-29T02:04:13.651Z,7.21
2023-03-29T02:06:41.656Z,7.20
2023-03-29T02:09:08.619Z,7.21
2023-03-29T02:11:36.140Z,7.23
2023-03-29T02:14:02.928Z,7.28
2023-03-29T02:16:37.548Z,7.29
2023-03-29T02:19:06.035Z,7.31
2023-03-29T02:21:53.995Z,7.32
2023-03-29T02:24:22.276Z,7.31
2023-03-29T02:26:49.223Z,7.32
2023-03-29T02:29:16.275Z,7.33
2023-03-29T02:31:49.328Z,7.32
2023-03-29T02:34:19.185Z,7.31
2023-03-29T02:37:22.197Z,7.30
2023-03-29T02:39:51.245Z,7.31
2023-03-29T02:42:20.300Z,7.30
2023-03-29T02:44:49.248Z,7.30
2023-03-29T02:47:22.950Z,7.31
2023-03-29T02:49:49.573Z,7.31
2023-03-29T02:52:22.200Z,7.34
2023-03-29T02:54:51.310Z,7.35
2023-03-29T02:57:18.160Z,7.34
2023-03-29T02:59:44.937Z,7.35
2023-03-29T03:02:11.850Z,7.34
2023-03-29T03:04:38.356Z,7.32
2023-03-29T03:07:07.758Z,7.31
2023-03-29T03:09:34.346Z,7.30
2023-03-29T03:12:01.045Z,7.30
2023-03-29T03:14:28.236Z,7.30
2023-03-29T03:16:55.180Z,7.30
2023-03-29T03:19:21.750Z,7.31
2023-03-29T03:21:48.173Z,7.33
2023-03-29T03:24:15.540Z,7.34
2023-03-29T03:26:41.997Z,7.34
2023-03-29T03:29:08.440Z,7.38
2023-03-29T03:31:34.880Z,7.40
2023-03-29T03:34:01.341Z,7.44
2023-03-29T03:36:28.992Z,7.45
2023-03-29T03:38:55.432Z,7.47
2023-03-29T03:41:22.680Z,7.50
2023-03-29T03:43:49.418Z,7.55
2023-03-29T03:46:17.091Z,7.57
2023-03-29T03:48:44.556Z,7.61
2023-03-29T03:51:11.568Z,7.62
2023-03-29T03:53:38.026Z,7.65
2023-03-29T03:56:08.904Z,7.64
2023-03-29T03:58:36.663Z,7.68
2023-03-29T04:01:04.235Z,7.66
2023-03-29T04:03:31.809Z,7.70
2023-03-29T04:06:05.156Z,7.72
2023-03-29T04:08:32.010Z,7.74
2023-03-29T04:10:59.676Z,7.75
2023-03-29T04:13:27.169Z,7.75
2023-03-29T04:15:55.258Z,7.75
2023-03-29T04:18:23.017Z,7.76
2023-03-29T04:20:50.167Z,7.76
2023-03-29T04:23:17.014Z,7.77
2023-03-29T04:25:44.036Z,7.77
2023-03-29T04:28:11.940Z,7.79
2023-03-29T04:30:38.724Z,7.77
2023-03-29T04:33:05.376Z,7.76
2023-03-29T04:35:32.400Z,7.75
2023-03-29T04:37:58.930Z,7.72
2023-03-29T04:40:25.341Z,7.73
2023-03-29T04:42:52.484Z,7.74
2023-03-29T04:45:19.068Z,7.75
2023-03-29T04:47:46.055Z,7.75
2023-03-29T04:50:13.767Z,7.76
2023-03-29T04:52:40.778Z,7.76
2023-03-29T04:55:08.665Z,7.77
2023-03-29T04:57:35.211Z,7.77
2023-03-29T05:00:01.695Z,7.79
2023-03-29T05:02:30.957Z,7.78
2023-03-29T05:04:57.363Z,7.79
2023-03-29T05:07:24.524Z,7.79
2023-03-29T05:09:50.917Z,7.80
2023-03-29T05:12:17.727Z,7.83
2023-03-29T05:14:44.145Z,7.83
2023-03-29T05:17:10.553Z,7.84
2023-03-29T05:19:38.256Z,7.84
2023-03-29T05:22:04.801Z,7.83
2023-03-29T05:24:31.206Z,7.83
2023-03-29T05:26:57.639Z,7.86
2023-03-29T05:29:24.059Z,7.86
2023-03-29T05:31:52.482Z,7.87
2023-03-29T05:34:18.999Z,7.89
2023-03-29T05:36:45.704Z,7.89
2023-03-29T05:39:15.459Z,7.89
2023-03-29T05:41:41.900Z,7.89
2023-03-29T05:44:08.527Z,7.91
2023-03-29T05:46:35.254Z,7.92
2023-03-29T05:49:02.426Z,7.91
2023-03-29T05:51:28.943Z,7.93
2023-03-29T05:53:55.403Z,7.91
2023-03-29T05:56:22.451Z,7.94
2023-03-29T05:58:49.425Z,7.99
2023-03-29T06:01:18.023Z,8.04
2023-03-29T06:03:46.324Z,8.09
2023-03-29T06:06:16.470Z,8.14
2023-03-29T06:08:43.624Z,8.17
2023-03-29T06:11:12.205Z,8.22
2023-03-29T06:13:39.117Z,8.24
2023-03-29T06:16:06.622Z,8.26
2023-03-29T06:18:33.358Z,8.29
2023-03-29T06:21:00.775Z,8.31
2023-03-29T06:23:27.459Z,8.33
2023-03-29T06:25:55.336Z,8.37
2023-03-29T06:28:22.811Z,8.40
2023-03-29T06:30:49.685Z,8.42
2023-03-29T06:33:20.463Z,8.44
2023-03-29T06:35:48.210Z,8.47
2023-03-29T06:38:15.109Z,8.51
2023-03-29T06:40:43.109Z,8.55
2023-03-29T06:43:10.106Z,8.60
2023-03-29T06:45:37.933Z,8.65
2023-03-29T06:48:06.246Z,8.73
2023-03-29T06:50:33.379Z,8.79
2023-03-29T06:53:00.069Z,8.86
2023-03-29T06:55:27.080Z,8.94
2023-03-29T06:57:53.915Z,8.99
2023-03-29T07:00:28.012Z,9.02
2023-03-29T07:02:56.626Z,9.08
2023-03-29T07:05:24.025Z,9.12
2023-03-29T07:07:55.035Z,9.16
2023-03-29T07:10:32.406Z,9.19
2023-03-29T07:13:03.460Z,9.20
2023-03-29T07:15:29.906Z,9.22
2023-03-29T07:17:57.526Z,9.27
2023-03-29T07:20:25.062Z,9.29
2023-03-29T07:22:51.836Z,9.33
2023-03-29T07:25:18.824Z,9.38
2023-03-29T07:27:46.352Z,9.40
2023-03-29T07:30:16.547Z,9.42
2023-03-29T07:32:45.481Z,9.40
2023-03-29T07:35:13.753Z,9.43
2023-03-29T07:37:42.868Z,9.46
2023-03-29T07:40:15.954Z,9.51
2023-03-29T07:42:44.417Z,9.57
2023-03-29T07:45:13.813Z,9.61
2023-03-29T07:47:41.054Z,9.65
2023-03-29T07:50:08.771Z,9.67
2023-03-29T07:52:36.795Z,9.76
2023-03-29T07:55:03.623Z,9.84
2023-03-29T07:57:30.268Z,9.94
2023-03-29T07:59:56.985Z,9.99
2023-03-29T08:02:24.038Z,10.09
2023-03-29T08:04:50.681Z,10.14
2023-03-29T08:07:21.461Z,10.23
2023-03-29T08:09:48.537Z,10.18
2023-03-29T08:12:15.131Z,10.25
2023-03-29T08:14:41.544Z,10.34
2023-03-29T08:17:07.982Z,10.35
2023-03-29T08:19:34.413Z,10.39
2023-03-29T08:22:01.159Z,10.38
2023-03-29T08:24:27.698Z,10.41
2023-03-29T08:26:54.208Z,10.42
2023-03-29T08:29:20.633Z,10.44
2023-03-29T08:31:47.198Z,10.49
2023-03-29T08:34:13.973Z,10.59
2023-03-29T08:36:40.469Z,10.61
2023-03-29T08:39:06.953Z,10.63
2023-03-29T08:41:52.946Z,10.66
2023-03-29T08:44:41.745Z,10.70
2023-03-29T08:47:37.459Z,10.74
2023-03-29T08:50:04.342Z,10.83
2023-03-29T08:53:02.485Z,10.92
2023-03-29T08:55:37.580Z,11.00
2023-03-29T08:58:08.106Z,11.11
2023-03-29T09:00:52.012Z,11.19
2023-03-29T09:03:29.474Z,11.30
2023-03-29T09:05:59.338Z,11.40
2023-03-29T09:08:26.642Z,11.47
2023-03-29T09:11:17.934Z,11.58
2023-03-29T09:14:06.951Z,11.68
2023-03-29T09:17:00.523Z,11.80
2023-03-29T09:20:03.211Z,11.92
2023-03-29T09:22:58.151Z,12.02
2023-03-29T09:25:50.877Z,12.10
2023-03-29T09:28:23.383Z,12.17
2023-03-29T09:31:05.927Z,12.24
2023-03-29T09:33:42.827Z,12.32
2023-03-29T09:36:51.166Z,12.36
2023-03-29T09:39:18.604Z,12.45
2023-03-29T09:41:54.477Z,12.57
2023-03-29T09:44:31.277Z,12.70
2023-03-29T09:47:13.180Z,12.86
2023-03-29T09:49:47.099Z,12.96
2023-03-29T09:52:17.006Z,13.06
2023-03-29T09:54:44.211Z,13.18
2023-03-29T09:57:12.521Z,13.24
2023-03-29T09:59:40.067Z,13.25
2023-03-29T10:02:12.807Z,13.29
2023-03-29T10:04:42.050Z,13.28
2023-03-29T10:07:15.583Z,13.28
2023-03-29T10:09:45.451Z,13.29
2023-03-29T10:12:13.599Z,13.23
2023-03-29T10:14:46.459Z,13.20
2023-03-29T10:17:21.761Z,13.12
2023-03-29T10:19:55.642Z,13.13
2023-03-29T10:22:24.638Z,13.16
2023-03-29T10:24:53.367Z,13.22
2023-03-29T10:27:23.772Z,13.26
2023-03-29T10:29:51.417Z,13.32
2023-03-29T10:32:27.975Z,13.43
2023-03-29T10:34:55.216Z,13.50
2023-03-29T10:37:22.947Z,13.58
2023-03-29T10:39:50.162Z,13.69
2023-03-29T10:42:19.746Z,13.76
2023-03-29T10:44:54.909Z,13.89
2023-03-29T10:47:22.151Z,13.97
2023-03-29T10:49:56.628Z,14.08
2023-03-29T10:52:23.257Z,14.19
2023-03-29T10:54:51.729Z,14.23
2023-03-29T10:57:27.173Z,14.29
2023-03-29T11:00:01.457Z,14.27
2023-03-29T11:02:53.686Z,14.28
2023-03-29T11:05:24.591Z,14.35
2023-03-29T11:08:20.756Z,14.37
2023-03-29T11:11:02.399Z,14.35
2023-03-29T11:13:59.965Z,14.42
2023-03-29T11:16:41.999Z,14.50
2023-03-29T11:19:28.247Z,14.56
2023-03-29T11:22:09.586Z,14.63
2023-03-29T11:25:16.109Z,14.76
2023-03-29T11:28:03.828Z,14.85
2023-03-29T11:30:50.215Z,14.89
2023-03-29T11:33:41.615Z,15.05
2023-03-29T11:36:23.955Z,15.25
2023-03-29T11:39:15.456Z,15.47
2023-03-29T11:41:46.265Z,15.65
2023-03-29T11:44:30.059Z,15.85
2023-03-29T11:47:03.698Z,16.05
2023-03-29T11:49:37.376Z,16.22
2023-03-29T11:52:22.539Z,16.29
2023-03-29T11:55:23.760Z,16.24
2023-03-29T11:57:53.876Z,16.47
2023-03-29T12:00:25.007Z,16.82
2023-03-29T12:03:02.035Z,16.86
2023-03-29T12:05:34.747Z,16.89
2023-03-29T12:08:18.794Z,16.87
2023-03-29T12:10:51.425Z,16.90
2023-03-29T12:13:24.427Z,17.08
2023-03-29T12:15:58.821Z,17.20
2023-03-29T12:18:32.129Z,17.29
2023-03-29T12:21:04.706Z,17.41
2023-03-29T12:23:32.515Z,17.61
2023-03-29T12:26:16.265Z,17.87
2023-03-29T12:29:05.342Z,17.70
2023-03-29T12:31:58.269Z,17.84
2023-03-29T12:35:03.301Z,17.84
2023-03-29T12:37:53.472Z,17.86
2023-03-29T12:40:23.108Z,18.02
2023-03-29T12:43:03.896Z,18.07
2023-03-29T12:45:35.011Z,18.05
2023-03-29T12:48:01.938Z,18.22
2023-03-29T12:50:34.862Z,18.40
2023-03-29T12:53:25.124Z,18.59
2023-03-29T12:56:08.763Z,18.64
2023-03-29T12:58:56.086Z,18.80
2023-03-29T13:01:35.263Z,18.92
2023-03-29T13:04:01.684Z,18.73
2023-03-29T13:06:52.244Z,18.84
2023-03-29T13:09:29.466Z,19.07
2023-03-29T13:11:59.656Z,19.27
2023-03-29T13:14:30.206Z,19.32
2023-03-29T13:17:18.403Z,19.54
2023-03-29T13:19:49.994Z,19.53
2023-03-29T13:22:40.642Z,19.00
2023-03-29T13:25:44.606Z,18.60
2023-03-29T13:28:29.903Z,18.54
2023-03-29T13:31:01.703Z,18.90
2023-03-29T13:33:46.455Z,19.14
2023-03-29T13:36:36.302Z,19.31
2023-03-29T13:39:06.849Z,19.34
2023-03-29T13:41:48.809Z,19.51
2023-03-29T13:44:47.729Z,19.47
2023-03-29T13:47:32.496Z,19.64
2023-03-29T13:50:05.420Z,19.62
2023-03-29T13:52:40.059Z,19.26
2023-03-29T13:55:21.610Z,19.22
2023-03-29T13:58:06.314Z,19.17
2023-03-29T14:00:39.955Z,18.89
2023-03-29T14:03:12.547Z,18.80
2023-03-29T14:05:43.174Z,18.63
2023-03-29T14:08:27.238Z,18.27
2023-03-29T14:10:55.113Z,18.14
2023-03-29T14:13:25.326Z,18.12
2023-03-29T14:15:55.226Z,18.06
2023-03-29T14:18:25.449Z,18.04
2023-03-29T14:20:55.115Z,17.95
2023-03-29T14:23:25.278Z,17.92
2023-03-29T14:25:51.973Z,17.93
2023-03-29T14:28:27.843Z,17.82
2023-03-29T14:30:55.954Z,17.90
2023-03-29T14:33:27.332Z,17.89
2023-03-29T14:35:59.409Z,17.74
2023-03-29T14:38:27.049Z,17.72
2023-03-29T14:40:58.680Z,17.78
2023-03-29T14:43:29.784Z,17.81
2023-03-29T14:45:57.649Z,17.83
2023-03-29T14:48:24.766Z,17.76
2023-03-29T14:50:51.488Z,17.64
2023-03-29T14:53:20.706Z,17.65
2023-03-29T14:55:52.806Z,17.62
2023-03-29T14:58:27.492Z,17.60
2023-03-29T15:00:54.132Z,17.50
2023-03-29T15:03:26.278Z,17.55
2023-03-29T15:05:58.370Z,17.57
2023-03-29T15:08:32.311Z,17.58
2023-03-29T15:10:59.667Z,17.58
2023-03-29T15:13:27.459Z,17.58
2023-03-29T15:15:58.955Z,17.51
2023-03-29T15:18:34.348Z,17.50
2023-03-29T15:21:02.043Z,17.40
2023-03-29T15:23:55.223Z,17.34
2023-03-29T15:26:23.268Z,17.30
2023-03-29T15:28:57.486Z,17.31
2023-03-29T15:31:34.710Z,17.27
2023-03-29T15:34:11.652Z,17.20
2023-03-29T15:36:45.038Z,17.15
2023-03-29T15:39:17.041Z,17.12
2023-03-29T15:41:44.887Z,17.10
2023-03-29T15:44:14.897Z,17.08
2023-03-29T15:46:41.917Z,17.08
2023-03-29T15:49:12.642Z,17.09
2023-03-29T15:51:39.868Z,17.07
2023-03-29T15:54:07.762Z,17.06
2023-03-29T15:57:01.778Z,17.03
2023-03-29T15:59:28.283Z,16.99
2023-03-29T16:01:55.212Z,16.92
2023-03-29T16:04:22.605Z,16.93
2023-03-29T16:06:52.678Z,16.88
2023-03-29T16:09:20.359Z,16.88
2023-03-29T16:11:47.447Z,16.91
2023-03-29T16:14:17.804Z,16.96
2023-03-29T16:16:44.393Z,16.88
2023-03-29T16:19:11.114Z,16.77
2023-03-29T16:21:37.818Z,16.84
2023-03-29T16:24:04.719Z,16.81
2023-03-29T16:26:31.687Z,16.84
2023-03-29T16:28:58.133Z,16.90
2023-03-29T16:31:26.833Z,16.91
2023-03-29T16:33:53.865Z,16.90
2023-03-29T16:36:20.347Z,16.85
2023-03-29T16:38:47.265Z,16.86
2023-03-29T16:41:17.588Z,16.83
2023-03-29T16:43:44.292Z,16.73
2023-03-29T16:46:11.653Z,16.76
2023-03-29T16:48:38.711Z,16.73
2023-03-29T16:51:05.729Z,16.72
2023-03-29T16:53:32.122Z,16.70
2023-03-29T16:55:58.518Z,16.69
2023-03-29T16:58:24.937Z,16.68
2023-03-29T17:00:54.486Z,16.67
2023-03-29T17:03:21.204Z,16.63
2023-03-29T17:05:52.828Z,16.60
2023-03-29T17:08:21.172Z,16.60
2023-03-29T17:10:52.697Z,16.57
2023-03-29T17:13:20.606Z,16.54
2023-03-29T17:15:47.063Z,16.47
2023-03-29T17:18:14.157Z,16.46
2023-03-29T17:20:40.621Z,16.40
2023-03-29T17:23:08.749Z,16.37
2023-03-29T17:25:35.482Z,16.33
2023-03-29T17:28:01.872Z,16.30
2023-03-29T17:30:28.467Z,16.29
2023-03-29T17:32:55.237Z,16.23
2023-03-29T17:35:21.807Z,16.18
2023-03-29T17:37:48.549Z,16.14
2023-03-29T17:40:14.958Z,16.06
2023-03-29T17:42:41.950Z,16.00
2023-03-29T17:45:10.008Z,15.95
2023-03-29T17:47:37.595Z,15.98
2023-03-29T17:50:06.103Z,15.91
2023-03-29T17:52:32.650Z,15.88
2023-03-29T17:54:59.014Z,15.86
2023-03-29T17:57:25.557Z,15.81
2023-03-29T17:59:52.041Z,15.80
2023-03-29T18:02:23.296Z,15.78
2023-03-29T18:04:50.684Z,15.74
2023-03-29T18:07:17.436Z,15.72
2023-03-29T18:09:44.034Z,15.68
2023-03-29T18:12:10.965Z,15.66
2023-03-29T18:14:37.375Z,15.64
2023-03-29T18:17:04.046Z,15.63
2023-03-29T18:19:30.841Z,15.57
2023-03-29T18:21:57.480Z,15.50
2023-03-29T18:24:23.943Z,15.50
2023-03-29T18:26:50.777Z,15.49
2023-03-29T18:29:17.250Z,15.46
2023-03-29T18:31:45.790Z,15.45
2023-03-29T18:34:12.383Z,15.43
2023-03-29T18:36:39.586Z,15.44
2023-03-29T18:39:06.099Z,15.43
2023-03-29T18:41:34.271Z,15.42
2023-03-29T18:44:00.874Z,15.39
2023-03-29T18:46:31.920Z,15.36
2023-03-29T18:48:59.503Z,15.33
2023-03-29T18:51:28.066Z,15.31
2023-03-29T18:53:56.016Z,15.31
2023-03-29T18:56:22.936Z,15.31
2023-03-29T18:58:49.441Z,15.29
2023-03-29T19:01:16.187Z,15.27
2023-03-29T19:03:42.745Z,15.27
2023-03-29T19:06:09.470Z,15.24
2023-03-29T19:08:38.670Z,15.22
2023-03-29T19:11:07.335Z,15.22
2023-03-29T19:13:34.808Z,15.19
2023-03-29T19:16:02.159Z,15.17
2023-03-29T19:18:28.906Z,15.18
2023-03-29T19:20:55.444Z,15.16
2023-03-29T19:23:25.058Z,15.14
2023-03-29T19:25:56.540Z,15.09
2023-03-29T19:28:24.199Z,15.07
2023-03-29T19:30:50.685Z,15.03
2023-03-29T19:33:17.399Z,15.02
2023-03-29T19:35:44.148Z,15.00
2023-03-29T19:38:10.892Z,14.97
2023-03-29T19:40:37.423Z,14.94
2023-03-29T19:43:04.602Z,14.92
2023-03-29T19:45:31.224Z,14.90
2023-03-29T19:48:02.603Z,14.88
2023-03-29T19:50:31.614Z,14.85
2023-03-29T19:52:58.484Z,14.81
2023-03-29T19:55:25.404Z,14.81
2023-03-29T19:57:52.283Z,14.78
2023-03-29T20:00:19.169Z,14.77
2023-03-29T20:02:45.699Z,14.76
2023-03-29T20:05:12.514Z,14.71
2023-03-29T20:07:38.900Z,14.70
2023-03-29T20:10:05.991Z,14.66
2023-03-29T20:12:32.410Z,14.65
2023-03-29T20:14:58.940Z,14.62
2023-03-29T20:17:25.653Z,14.59
2023-03-29T20:19:53.930Z,14.57
2023-03-29T20:22:20.415Z,14.55
2023-03-29T20:24:47.164Z,14.55
2023-03-29T20:27:13.854Z,14.54
2023-03-29T20:29:40.386Z,14.53
2023-03-29T20:32:07.001Z,14.51
2023-03-29T20:34:33.587Z,14.45
2023-03-29T20:37:00.758Z,14.42
2023-03-29T20:39:29.631Z,14.38
2023-03-29T20:41:56.142Z,14.35
2023-03-29T20:44:26.301Z,14.34
2023-03-29T20:47:06.652Z,14.32
2023-03-29T20:49:39.681Z,14.30
2023-03-29T20:52:10.577Z,14.29
2023-03-29T20:54:37.326Z,14.26
2023-03-29T20:57:07.817Z,14.24
2023-03-29T20:59:35.590Z,14.23
2023-03-29T21:02:02.051Z,14.22
2023-03-29T21:04:28.579Z,14.21
2023-03-29T21:06:56.154Z,14.21
2023-03-29T21:09:23.800Z,14.21
2023-03-29T21:11:50.804Z,14.17
2023-03-29T21:14:23.155Z,14.10
2023-03-29T21:16:49.958Z,14.08
2023-03-29T21:19:17.055Z,14.07
2023-03-29T21:21:44.918Z,14.05
2023-03-29T21:24:13.753Z,14.00
2023-03-29T21:26:41.562Z,13.99
2023-03-29T21:29:08.089Z,13.93
2023-03-29T21:31:34.703Z,13.90
2023-03-29T21:34:01.238Z,13.87
2023-03-29T21:36:27.907Z,13.83
2023-03-29T21:38:54.647Z,13.81
2023-03-29T21:41:21.927Z,13.74
2023-03-29T21:43:48.421Z,13.70
2023-03-29T21:46:15.006Z,13.67
2023-03-29T21:48:41.832Z,13.67
2023-03-29T21:51:08.749Z,13.66
2023-03-29T21:53:35.187Z,13.65
2023-03-29T21:56:01.726Z,13.68
2023-03-29T21:58:28.216Z,13.67
2023-03-29T22:00:56.195Z,13.66
2023-03-29T22:03:23.039Z,13.63
2023-03-29T22:06:01.148Z,13.59
2023-03-29T22:08:27.890Z,13.57
2023-03-29T22:10:56.585Z,13.56
2023-03-29T22:13:28.259Z,13.56
2023-03-29T22:15:59.106Z,13.56
2023-03-29T22:18:27.971Z,13.54
2023-03-29T22:20:54.572Z,13.51
2023-03-29T22:23:21.112Z,13.51
2023-03-29T22:25:47.530Z,13.50
2023-03-29T22:28:14.657Z,13.51
2023-03-29T22:30:41.323Z,13.51
2023-03-29T22:33:07.772Z,13.51
2023-03-29T22:35:35.520Z,13.49
2023-03-29T22:38:02.134Z,13.49
2023-03-29T22:40:28.605Z,13.48
2023-03-29T22:42:55.006Z,13.48
2023-03-29T22:45:21.427Z,13.45
2023-03-29T22:47:47.815Z,13.42
2023-03-29T22:50:14.308Z,13.39
2023-03-29T22:52:40.864Z,13.38
2023-03-29T22:55:07.577Z,13.36
2023-03-29T22:57:34.049Z,13.37
2023-03-29T23:00:00.640Z,13.34
2023-03-29T23:02:27.053Z,13.34
2023-03-29T23:04:53.495Z,13.30
2023-03-29T23:07:19.953Z,13.31
2023-03-29T23:09:46.512Z,13.31
2023-03-29T23:12:12.942Z,13.31
2023-03-29T23:14:42.495Z,13.32
2023-03-29T23:17:10.242Z,13.33
2023-03-29T23:19:37.834Z,13.35
2023-03-29T23:22:04.428Z,13.32
2023-03-29T23:24:30.945Z,13.34
2023-03-29T23:26:57.525Z,13.33
2023-03-29T23:29:26.230Z,13.35
2023-03-29T23:31:53.794Z,13.34
2023-03-29T23:34:20.338Z,13.35
2023-03-29T23:36:46.788Z,13.35
2023-03-29T23:39:14.216Z,13.35
2023-03-29T23:41:40.968Z,13.36
2023-03-29T23:44:07.756Z,13.36
2023-03-29T23:46:34.548Z,13.36
2023-03-29T23:49:00.975Z,13.36
2023-03-29T23:51:28.424Z,13.35
2023-03-29T23:53:55.877Z,13.34
2023-03-29T23:56:23.001Z,13.31
2023-03-29T23:58:50.128Z,13.28
